createdAt,value
2022-09-27T00:01:19.272Z,15.75
2022-09-27T00:03:47.857Z,15.64
2022-09-27T00:06:17.924Z,15.71
2022-09-27T00:08:46.484Z,15.68
2022-09-27T00:11:24.146Z,15.69
2022-09-27T00:13:52.705Z,15.62
2022-09-27T00:16:21.365Z,15.71
2022-09-27T00:18:50.256Z,15.68
2022-09-27T00:21:18.962Z,15.66
2022-09-27T00:23:47.694Z,15.67
2022-09-27T00:26:16.334Z,15.69
2022-09-27T00:28:46.332Z,15.70
2022-09-27T00:31:23.116Z,15.64
2022-09-27T00:33:53.479Z,15.72
2022-09-27T00:36:23.506Z,15.69
2022-09-27T00:38:52.234Z,15.69
2022-09-27T00:41:23.285Z,15.66
2022-09-27T00:43:55.394Z,15.64
2022-09-27T00:46:29.652Z,15.72
2022-09-27T00:49:10.100Z,15.67
2022-09-27T00:51:41.208Z,15.65
2022-09-27T00:54:14.535Z,15.60
2022-09-27T00:56:45.344Z,15.63
2022-09-27T00:59:21.314Z,15.70
2022-09-27T01:01:51.368Z,15.68
2022-09-27T01:04:24.362Z,15.71
2022-09-27T01:06:53.384Z,15.72
2022-09-27T01:09:23.034Z,15.73
2022-09-27T01:11:59.392Z,15.70
2022-09-27T01:14:42.755Z,15.68
2022-09-27T01:17:26.294Z,15.71
2022-09-27T01:20:20.234Z,15.71
2022-09-27T01:23:05.604Z,15.76
2022-09-27T01:25:57.755Z,15.71
2022-09-27T01:28:40.444Z,15.72
2022-09-27T01:31:18.704Z,15.72
2022-09-27T01:33:57.326Z,15.73
2022-09-27T01:36:33.771Z,15.73
2022-09-27T01:39:18.792Z,15.69
2022-09-27T01:41:52.969Z,15.72
2022-09-27T01:44:37.861Z,15.74
2022-09-27T01:47:15.430Z,15.76
2022-09-27T01:49:51.530Z,15.76
2022-09-27T01:52:25.799Z,15.79
2022-09-27T01:54:58.989Z,15.78
2022-09-27T01:57:34.349Z,15.75
2022-09-27T02:00:08.983Z,15.74
2022-09-27T02:02:46.013Z,15.75
2022-09-27T02:05:18.299Z,15.75
2022-09-27T02:07:52.369Z,15.72
2022-09-27T02:10:26.339Z,15.73
2022-09-27T02:13:03.250Z,15.71
2022-09-27T02:15:44.572Z,15.72
2022-09-27T02:18:21.279Z,15.71
2022-09-27T02:20:56.029Z,15.73
2022-09-27T02:23:31.649Z,15.72
2022-09-27T02:26:04.166Z,15.73
2022-09-27T02:28:37.532Z,15.72
2022-09-27T02:31:06.660Z,15.67
2022-09-27T02:33:43.442Z,15.71
2022-09-27T02:36:12.719Z,15.68
2022-09-27T02:38:41.899Z,15.69
2022-09-27T02:41:16.493Z,15.67
2022-09-27T02:43:46.849Z,15.71
2022-09-27T02:46:39.910Z,15.67
2022-09-27T02:49:26.510Z,15.64
2022-09-27T02:52:02.331Z,15.65
2022-09-27T02:54:37.519Z,15.67
2022-09-27T02:57:19.029Z,15.64
2022-09-27T02:59:55.972Z,15.64
2022-09-27T03:02:34.390Z,15.61
2022-09-27T03:05:08.300Z,15.66
2022-09-27T03:07:38.789Z,15.62
2022-09-27T03:10:08.328Z,15.60
2022-09-27T03:12:37.079Z,15.60
2022-09-27T03:15:07.049Z,15.61
2022-09-27T03:17:35.559Z,15.60
2022-09-27T03:20:06.039Z,15.60
2022-09-27T03:22:34.619Z,15.59
2022-09-27T03:25:03.169Z,15.60
2022-09-27T03:27:31.639Z,15.58
2022-09-27T03:30:00.208Z,15.57
2022-09-27T03:32:28.969Z,15.57
2022-09-27T03:34:57.439Z,15.57
2022-09-27T03:37:29.709Z,15.56
2022-09-27T03:39:58.243Z,15.56
2022-09-27T03:42:26.810Z,15.55
2022-09-27T03:44:55.429Z,15.55
2022-09-27T03:47:24.189Z,15.50
2022-09-27T03:49:52.805Z,15.49
2022-09-27T03:52:21.360Z,15.49
2022-09-27T03:54:51.319Z,15.51
2022-09-27T03:57:19.799Z,15.49
2022-09-27T03:59:48.349Z,15.45
2022-09-27T04:02:16.903Z,15.47
2022-09-27T04:04:45.421Z,15.44
2022-09-27T04:07:14.169Z,15.42
2022-09-27T04:09:44.956Z,15.43
2022-09-27T04:12:15.222Z,15.46
2022-09-27T04:14:43.679Z,15.39
2022-09-27T04:17:12.310Z,15.40
2022-09-27T04:19:40.870Z,15.43
2022-09-27T04:22:09.504Z,15.40
2022-09-27T04:24:37.952Z,15.41
2022-09-27T04:27:06.599Z,15.41
2022-09-27T04:29:36.560Z,15.40
2022-09-27T04:32:05.139Z,15.40
2022-09-27T04:34:50.979Z,15.39
2022-09-27T04:37:19.449Z,15.34
2022-09-27T04:39:50.660Z,15.37
2022-09-27T04:42:20.089Z,15.38
2022-09-27T04:44:50.029Z,15.36
2022-09-27T04:47:21.370Z,15.33
2022-09-27T04:49:50.003Z,15.35
2022-09-27T04:52:18.549Z,15.35
2022-09-27T04:54:47.149Z,15.29
2022-09-27T04:57:15.679Z,15.30
2022-09-27T04:59:44.539Z,15.31
2022-09-27T05:02:14.603Z,15.28
2022-09-27T05:04:43.115Z,15.28
2022-09-27T05:07:11.739Z,15.30
2022-09-27T05:09:40.271Z,15.29
2022-09-27T05:12:09.069Z,15.24
2022-09-27T05:14:37.553Z,15.27
2022-09-27T05:17:08.074Z,15.22
2022-09-27T05:19:39.729Z,15.29
2022-09-27T05:22:08.630Z,15.31
2022-09-27T05:24:38.520Z,15.28
2022-09-27T05:27:08.390Z,15.28
2022-09-27T05:29:37.409Z,15.27
2022-09-27T05:32:06.521Z,15.26
2022-09-27T05:34:35.129Z,15.26
2022-09-27T05:37:05.292Z,15.23
2022-09-27T05:39:33.859Z,15.24
2022-09-27T05:42:04.964Z,15.28
2022-09-27T05:44:33.520Z,15.28
2022-09-27T05:47:04.530Z,15.25
2022-09-27T05:49:33.109Z,15.27
2022-09-27T05:52:01.859Z,15.28
2022-09-27T05:54:32.050Z,15.26
2022-09-27T05:57:00.891Z,15.25
2022-09-27T05:59:30.012Z,15.25
2022-09-27T06:01:58.540Z,15.25
2022-09-27T06:04:27.139Z,15.25
2022-09-27T06:06:59.357Z,15.26
2022-09-27T06:09:28.439Z,15.28
2022-09-27T06:11:59.470Z,15.25
2022-09-27T06:14:28.039Z,15.22
2022-09-27T06:16:56.622Z,15.22
2022-09-27T06:19:25.239Z,15.19
2022-09-27T06:21:57.384Z,15.14
2022-09-27T06:24:25.970Z,15.19
2022-09-27T06:26:54.479Z,15.14
2022-09-27T06:29:24.739Z,15.10
2022-09-27T06:31:53.369Z,15.12
2022-09-27T06:34:21.859Z,15.12
2022-09-27T06:36:51.735Z,15.13
2022-09-27T06:39:20.409Z,15.10
2022-09-27T06:41:53.739Z,15.17
2022-09-27T06:44:23.879Z,15.18
2022-09-27T06:46:53.130Z,15.16
2022-09-27T06:49:22.921Z,15.21
2022-09-27T06:51:51.799Z,15.19
2022-09-27T06:54:20.879Z,15.18
2022-09-27T06:56:49.679Z,15.27
2022-09-27T06:59:35.230Z,15.26
2022-09-27T07:02:05.606Z,15.23
2022-09-27T07:04:34.479Z,15.27
2022-09-27T07:07:03.061Z,15.27
2022-09-27T07:09:31.579Z,15.28
2022-09-27T07:12:00.391Z,15.29
2022-09-27T07:14:28.920Z,15.27
2022-09-27T07:16:57.430Z,15.25
2022-09-27T07:19:27.380Z,15.28
2022-09-27T07:21:55.959Z,15.23
2022-09-27T07:24:24.601Z,15.23
2022-09-27T07:26:53.078Z,15.22
2022-09-27T07:29:21.600Z,15.18
2022-09-27T07:31:50.052Z,15.22
2022-09-27T07:34:19.589Z,15.19
2022-09-27T07:36:49.598Z,15.10
2022-09-27T07:39:18.138Z,15.07
2022-09-27T07:41:46.970Z,15.04
2022-09-27T07:44:16.839Z,15.13
2022-09-27T07:46:45.429Z,15.13
2022-09-27T07:49:14.151Z,15.11
2022-09-27T07:51:42.809Z,15.07
2022-09-27T07:54:12.699Z,14.99
2022-09-27T07:56:41.210Z,15.07
2022-09-27T07:59:09.759Z,15.11
2022-09-27T08:01:38.455Z,15.15
2022-09-27T08:04:07.099Z,15.18
2022-09-27T08:06:35.681Z,15.16
2022-09-27T08:09:07.574Z,15.21
2022-09-27T08:11:37.689Z,15.27
2022-09-27T08:14:06.608Z,15.20
2022-09-27T08:16:35.993Z,15.18
2022-09-27T08:19:04.610Z,15.24
2022-09-27T08:21:33.599Z,15.23
2022-09-27T08:24:02.533Z,15.23
2022-09-27T08:26:31.092Z,15.27
2022-09-27T08:29:01.490Z,15.29
2022-09-27T08:31:30.102Z,15.29
2022-09-27T08:33:58.699Z,15.29
2022-09-27T08:36:27.289Z,15.37
2022-09-27T08:38:59.332Z,15.35
2022-09-27T08:41:39.149Z,15.38
2022-09-27T08:44:21.660Z,15.36
2022-09-27T08:46:59.299Z,15.35
2022-09-27T08:49:35.089Z,15.34
2022-09-27T08:52:06.089Z,15.41
2022-09-27T08:54:37.056Z,15.42
2022-09-27T08:57:08.250Z,15.46
2022-09-27T08:59:42.610Z,15.42
2022-09-27T09:02:19.437Z,15.46
2022-09-27T09:04:50.309Z,15.43
2022-09-27T09:07:33.640Z,15.43
2022-09-27T09:10:07.129Z,15.45
2022-09-27T09:12:48.989Z,15.46
2022-09-27T09:15:33.574Z,15.45
2022-09-27T09:18:23.909Z,15.46
2022-09-27T09:21:08.909Z,15.43
2022-09-27T09:24:00.209Z,15.34
2022-09-27T09:26:35.521Z,15.40
2022-09-27T09:29:18.569Z,15.43
2022-09-27T09:31:59.232Z,15.40
2022-09-27T09:34:33.621Z,15.49
2022-09-27T09:37:06.098Z,15.49
2022-09-27T09:39:41.129Z,15.50
2022-09-27T09:42:14.999Z,15.53
2022-09-27T09:44:54.409Z,15.56
2022-09-27T09:47:33.110Z,15.55
2022-09-27T09:50:04.900Z,15.53
2022-09-27T09:52:41.959Z,15.57
2022-09-27T09:55:19.569Z,15.58
2022-09-27T09:58:02.410Z,15.65
2022-09-27T10:00:31.079Z,15.73
2022-09-27T10:03:05.429Z,15.76
2022-09-27T10:05:34.590Z,15.76
2022-09-27T10:08:06.229Z,15.92
2022-09-27T10:10:35.535Z,15.85
2022-09-27T10:13:05.871Z,15.84
2022-09-27T10:15:35.440Z,15.77
2022-09-27T10:18:05.732Z,15.78
2022-09-27T10:20:38.390Z,15.75
2022-09-27T10:23:14.810Z,15.77
2022-09-27T10:25:53.822Z,15.72
2022-09-27T10:28:37.800Z,15.71
2022-09-27T10:31:08.379Z,15.77
2022-09-27T10:33:41.423Z,15.73
2022-09-27T10:36:25.929Z,15.77
2022-09-27T10:38:55.519Z,15.74
2022-09-27T10:41:33.341Z,15.77
2022-09-27T10:44:21.809Z,15.78
2022-09-27T10:46:53.462Z,15.77
2022-09-27T10:49:26.631Z,15.77
2022-09-27T10:51:57.079Z,15.78
2022-09-27T10:54:29.050Z,15.75
2022-09-27T10:57:05.599Z,15.75
2022-09-27T10:59:38.519Z,15.75
2022-09-27T11:02:17.769Z,15.76
2022-09-27T11:05:05.235Z,15.77
2022-09-27T11:07:33.859Z,15.75
2022-09-27T11:10:04.010Z,15.69
2022-09-27T11:12:35.773Z,15.73
2022-09-27T11:15:07.751Z,15.76
2022-09-27T11:17:43.972Z,15.72
2022-09-27T11:20:35.101Z,15.70
2022-09-27T11:23:26.390Z,15.74
2022-09-27T11:26:07.939Z,15.71
2022-09-27T11:28:47.399Z,15.66
2022-09-27T11:31:27.543Z,16.13
2022-09-27T11:34:17.999Z,15.85
2022-09-27T11:37:02.889Z,15.69
2022-09-27T11:39:41.920Z,15.77
2022-09-27T11:42:34.838Z,15.76
2022-09-27T11:48:24.720Z,15.92
2022-09-27T11:51:09.001Z,15.98
2022-09-27T11:54:00.851Z,16.01
2022-09-27T11:56:42.469Z,16.01
2022-09-27T11:59:33.799Z,16.02
2022-09-27T12:02:14.229Z,16.03
2022-09-27T12:04:56.319Z,16.04
2022-09-27T12:07:35.389Z,15.96
2022-09-27T12:10:11.489Z,16.01
2022-09-27T12:12:48.230Z,15.98
2022-09-27T12:15:27.797Z,16.04
2022-09-27T12:18:14.839Z,16.05
2022-09-27T12:20:48.799Z,16.05
2022-09-27T12:23:23.079Z,16.01
2022-09-27T12:25:57.940Z,16.03
2022-09-27T12:28:44.039Z,16.02
2022-09-27T12:31:34.533Z,15.99
2022-09-27T12:34:17.407Z,15.95
2022-09-27T12:36:53.501Z,15.96
2022-09-27T12:39:30.029Z,15.95
2022-09-27T12:42:09.291Z,15.93
2022-09-27T12:44:41.599Z,15.95
2022-09-27T12:47:21.852Z,15.94
2022-09-27T12:50:04.011Z,15.92
2022-09-27T12:52:43.119Z,15.93
2022-09-27T12:55:55.151Z,15.95
2022-09-27T12:58:56.861Z,15.87
2022-09-27T13:01:58.318Z,15.94
2022-09-27T13:04:45.762Z,15.91
2022-09-27T13:07:27.736Z,15.94
2022-09-27T13:10:25.081Z,15.98
2022-09-27T13:12:57.860Z,15.95
2022-09-27T13:15:36.965Z,15.96
2022-09-27T13:18:08.810Z,15.97
2022-09-27T13:20:52.169Z,15.93
2022-09-27T13:24:00.841Z,15.95
2022-09-27T13:26:50.719Z,15.97
2022-09-27T13:29:37.849Z,15.96
2022-09-27T13:32:20.998Z,15.98
2022-09-27T13:34:52.789Z,15.98
2022-09-27T13:37:37.936Z,15.95
2022-09-27T13:40:24.456Z,15.98
2022-09-27T13:43:27.792Z,15.92
2022-09-27T13:45:59.126Z,15.91
2022-09-27T13:48:35.089Z,15.91
2022-09-27T13:51:10.130Z,15.94
2022-09-27T13:53:41.440Z,15.92
2022-09-27T13:56:50.929Z,15.87
2022-09-27T13:59:25.909Z,15.89
2022-09-27T14:01:57.931Z,15.90
2022-09-27T14:04:35.629Z,15.87
2022-09-27T14:07:07.159Z,15.88
2022-09-27T14:09:39.970Z,15.86
2022-09-27T14:12:16.630Z,15.90
2022-09-27T14:14:45.809Z,15.89
2022-09-27T14:17:17.629Z,15.86
2022-09-27T14:19:54.451Z,15.89
2022-09-27T14:22:26.039Z,15.90
2022-09-27T14:24:59.149Z,15.90
2022-09-27T14:27:31.460Z,15.94
2022-09-27T14:30:05.359Z,15.94
2022-09-27T14:32:49.269Z,15.90
2022-09-27T14:35:38.459Z,15.94
2022-09-27T14:38:33.260Z,15.93
2022-09-27T14:41:01.387Z,15.95
2022-09-27T14:43:32.279Z,15.94
2022-09-27T14:46:03.090Z,15.97
2022-09-27T14:48:33.669Z,15.95
2022-09-27T14:51:13.259Z,15.94
2022-09-27T14:53:44.730Z,15.92
2022-09-27T14:56:18.379Z,15.94
2022-09-27T14:58:48.392Z,15.93
2022-09-27T15:01:19.031Z,15.95
2022-09-27T15:03:50.457Z,15.93
2022-09-27T15:06:21.600Z,15.91
2022-09-27T15:08:52.165Z,15.87
2022-09-27T15:11:22.271Z,15.90
2022-09-27T15:13:59.910Z,15.87
2022-09-27T15:16:30.508Z,15.87
2022-09-27T15:19:19.779Z,15.89
2022-09-27T15:21:54.409Z,15.89
2022-09-27T15:24:41.170Z,15.87
2022-09-27T15:27:19.320Z,15.88
2022-09-27T15:29:51.579Z,15.88
2022-09-27T15:32:23.919Z,15.90
2022-09-27T15:34:56.899Z,15.91
2022-09-27T15:37:37.749Z,15.91
2022-09-27T15:40:52.444Z,15.95
2022-09-27T15:43:23.249Z,15.93
2022-09-27T15:45:56.069Z,15.91
2022-09-27T15:48:29.499Z,15.89
2022-09-27T15:50:58.190Z,15.90
2022-09-27T15:53:46.269Z,15.89
2022-09-27T15:56:16.780Z,15.87
2022-09-27T15:58:49.800Z,15.88
2022-09-27T16:01:21.624Z,15.83
2022-09-27T16:03:51.692Z,15.82
2022-09-27T16:06:20.471Z,15.83
2022-09-27T16:08:53.059Z,15.84
2022-09-27T16:11:24.280Z,15.80
2022-09-27T16:13:55.122Z,15.79
2022-09-27T16:16:24.393Z,15.82
2022-09-27T16:18:54.091Z,15.84
2022-09-27T16:21:43.109Z,15.81
2022-09-27T16:24:33.239Z,15.76
2022-09-27T16:27:04.210Z,15.81
2022-09-27T16:29:35.791Z,15.77
2022-09-27T16:32:04.489Z,15.75
2022-09-27T16:34:36.578Z,15.80
2022-09-27T16:37:08.139Z,15.83
2022-09-27T16:39:39.909Z,15.81
2022-09-27T16:42:10.601Z,15.77
2022-09-27T16:44:42.359Z,15.77
2022-09-27T16:47:10.979Z,15.73
2022-09-27T16:49:56.588Z,15.74
2022-09-27T16:52:32.579Z,15.75
2022-09-27T16:55:03.132Z,15.82
2022-09-27T16:57:33.950Z,15.77
2022-09-27T17:00:06.579Z,15.77
2022-09-27T17:02:39.799Z,15.77
2022-09-27T17:05:11.641Z,15.79
2022-09-27T17:07:42.537Z,15.82
2022-09-27T17:10:21.869Z,15.84
2022-09-27T17:12:52.535Z,15.84
2022-09-27T17:15:23.759Z,15.89
2022-09-27T17:17:57.419Z,15.91
2022-09-27T17:20:25.953Z,15.89
2022-09-27T17:22:58.840Z,15.91
2022-09-27T17:25:29.433Z,15.99
2022-09-27T17:27:58.849Z,16.03
2022-09-27T17:30:30.012Z,16.08
2022-09-27T17:33:01.690Z,16.14
2022-09-27T17:35:32.701Z,16.22
2022-09-27T17:38:08.109Z,16.33
2022-09-27T17:40:38.857Z,16.49
2022-09-27T17:43:10.409Z,16.59
2022-09-27T17:45:38.899Z,16.67
2022-09-27T17:48:29.480Z,16.83
2022-09-27T17:51:00.773Z,16.95
2022-09-27T17:53:32.978Z,16.98
2022-09-27T17:56:05.689Z,17.04
2022-09-27T17:58:35.849Z,17.14
2022-09-27T18:01:10.500Z,17.15
2022-09-27T18:03:43.500Z,17.22
2022-09-27T18:06:14.619Z,17.22
2022-09-27T18:08:46.590Z,17.28
2022-09-27T18:11:18.932Z,17.30
2022-09-27T18:14:05.919Z,17.34
2022-09-27T18:16:37.220Z,17.31
2022-09-27T18:19:07.509Z,17.33
2022-09-27T18:21:37.069Z,17.36
2022-09-27T18:24:08.829Z,17.32
2022-09-27T18:26:41.179Z,17.34
2022-09-27T18:29:18.621Z,17.36
2022-09-27T18:31:49.395Z,17.32
2022-09-27T18:34:18.984Z,17.36
2022-09-27T18:36:56.869Z,17.37
2022-09-27T18:39:25.520Z,17.37
2022-09-27T18:41:56.741Z,17.35
2022-09-27T18:44:25.779Z,17.35
2022-09-27T18:46:58.384Z,17.32
2022-09-27T18:49:33.040Z,17.34
2022-09-27T18:52:13.739Z,17.32
2022-09-27T18:54:42.409Z,17.28
2022-09-27T18:57:12.539Z,17.35
2022-09-27T18:59:44.069Z,17.40
2022-09-27T19:02:12.695Z,17.36
2022-09-27T19:04:41.750Z,17.30
2022-09-27T19:07:10.349Z,17.29
2022-09-27T19:09:39.100Z,17.32
2022-09-27T19:12:10.683Z,17.32
2022-09-27T19:14:44.471Z,17.35
2022-09-27T19:17:13.019Z,17.33
2022-09-27T19:19:41.630Z,17.35
2022-09-27T19:22:10.802Z,17.42
2022-09-27T19:24:39.379Z,17.38
2022-09-27T19:27:07.919Z,17.38
2022-09-27T19:29:37.140Z,17.42
2022-09-27T19:32:08.299Z,17.39
2022-09-27T19:34:38.500Z,17.40
2022-09-27T19:37:07.650Z,17.46
2022-09-27T19:39:36.731Z,17.41
2022-09-27T19:42:05.531Z,17.37
2022-09-27T19:44:34.461Z,17.42
2022-09-27T19:47:03.126Z,17.45
2022-09-27T19:49:33.429Z,17.44
2022-09-27T19:52:05.099Z,17.45
2022-09-27T19:54:38.720Z,17.44
2022-09-27T19:57:11.062Z,17.44
2022-09-27T19:59:42.570Z,17.45
2022-09-27T20:02:13.105Z,17.47
2022-09-27T20:04:43.589Z,17.47
2022-09-27T20:07:12.702Z,17.46
2022-09-27T20:09:57.009Z,17.48
2022-09-27T20:12:31.119Z,17.46
2022-09-27T20:15:00.519Z,17.45
2022-09-27T20:17:36.650Z,17.46
2022-09-27T20:20:15.770Z,17.47
2022-09-27T20:22:46.390Z,17.52
2022-09-27T20:25:23.180Z,17.53
2022-09-27T20:27:51.779Z,17.52
2022-09-27T20:30:20.439Z,17.54
2022-09-27T20:33:09.540Z,17.47
2022-09-27T20:35:39.763Z,17.45
2022-09-27T20:38:08.265Z,17.47
2022-09-27T20:40:38.831Z,17.42
2022-09-27T20:43:07.519Z,17.43
2022-09-27T20:45:36.081Z,17.47
2022-09-27T20:48:04.939Z,17.51
2022-09-27T20:50:33.989Z,17.51
2022-09-27T20:53:03.983Z,17.50
2022-09-27T20:55:36.373Z,17.51
2022-09-27T20:58:06.694Z,17.48
2022-09-27T21:00:39.230Z,17.57
2022-09-27T21:03:20.849Z,17.55
2022-09-27T21:05:57.460Z,17.56
2022-09-27T21:08:36.194Z,17.51
2022-09-27T21:11:11.259Z,17.48
2022-09-27T21:13:44.432Z,17.44
2022-09-27T21:16:17.938Z,17.46
2022-09-27T21:18:46.950Z,17.44
2022-09-27T21:21:16.113Z,17.44
2022-09-27T21:23:55.430Z,17.42
2022-09-27T21:26:25.270Z,17.42
2022-09-27T21:28:55.711Z,17.45
2022-09-27T21:31:26.342Z,17.49
2022-09-27T21:34:02.620Z,17.49
2022-09-27T21:36:34.932Z,17.50
2022-09-27T21:39:05.839Z,17.49
2022-09-27T21:41:34.373Z,17.46
2022-09-27T21:44:05.539Z,17.49
2022-09-27T21:46:34.460Z,17.44
2022-09-27T21:49:03.645Z,17.49
2022-09-27T21:51:36.665Z,17.47
2022-09-27T21:54:09.001Z,17.44
2022-09-27T21:56:41.929Z,17.45
2022-09-27T21:59:16.923Z,17.42
2022-09-27T22:01:47.283Z,17.40
2022-09-27T22:04:18.120Z,17.37
2022-09-27T22:06:46.690Z,17.43
2022-09-27T22:09:23.941Z,17.40
2022-09-27T22:11:53.113Z,17.38
2022-09-27T22:14:21.700Z,17.42
2022-09-27T22:16:51.119Z,17.34
2022-09-27T22:19:21.590Z,17.26
2022-09-27T22:21:50.233Z,17.19
2022-09-27T22:24:29.259Z,17.19
2022-09-27T22:26:58.292Z,17.18
2022-09-27T22:29:26.940Z,17.22
2022-09-27T22:32:00.899Z,17.17
2022-09-27T22:34:31.435Z,17.17
2022-09-27T22:37:02.843Z,17.24
2022-09-27T22:39:35.630Z,17.22
2022-09-27T22:42:04.549Z,17.19
2022-09-27T22:44:34.559Z,17.20
2022-09-27T22:47:06.121Z,17.23
2022-09-27T22:49:34.840Z,17.19
2022-09-27T22:52:04.199Z,17.19
2022-09-27T22:54:34.480Z,17.19
2022-09-27T22:57:03.290Z,17.20
2022-09-27T22:59:34.910Z,17.18
2022-09-27T23:02:11.970Z,17.11
2022-09-27T23:04:41.079Z,17.11
2022-09-27T23:07:15.649Z,17.10
2022-09-27T23:09:45.740Z,17.12
2022-09-27T23:12:18.949Z,17.06
2022-09-27T23:14:47.630Z,17.08
2022-09-27T23:17:18.030Z,17.05
2022-09-27T23:19:46.859Z,17.05
2022-09-27T23:22:15.459Z,17.05
2022-09-27T23:24:45.459Z,17.05
2022-09-27T23:27:33.229Z,17.02
2022-09-27T23:30:01.791Z,16.96
2022-09-27T23:32:31.889Z,16.99
2022-09-27T23:35:07.073Z,16.96
2022-09-27T23:37:35.641Z,16.93
2022-09-27T23:40:09.770Z,16.93
2022-09-27T23:42:38.433Z,16.92
2022-09-27T23:45:07.969Z,16.90
2022-09-27T23:47:40.769Z,16.89
2022-09-27T23:50:10.870Z,16.88
2022-09-27T23:52:41.212Z,16.88
2022-09-27T23:55:13.119Z,16.83
2022-09-27T23:57:44.919Z,16.84
